^^
Datos históricos de la estación: Murcia-Puente Tocinos
Diario Informe para Agosto 10, 2019 Unidades:  Ingés    Métrico   Ambas
Diario Semanal Mensual Anual
  Máxima: Mínima: Promedio:
Temperatura: 81.9 °F 68.4 °F 75.9 °F
Punto de rocio: 65.7 °F 28.4 °F 49.3 °F
Humedad: 77% 14.2% 45%
Velocidad viento: 18.5mph 0mph 8.7mph
Racha viento: 36mph - -
Viento- - OSO
Presión: 29.9 in 29.7 in -
Precipitación: 0 in    
 
 
Tabla de datos para Agosto 10, 2019
Hora Temperatura Punto de rocio Presión Viento Velocidad viento Racha viento Humedad Intensidad lluvia(por hora) Nubes
00:04 73.8 °F 63.7 °F 29.9 in NNE 2.4 mph 5 mph 71% 0 in
00:09 73.9 °F 63.9 °F 29.9 in NNE 2.3 mph 4 mph 71% 0 in
00:14 73.9 °F 63.9 °F 29.9 in ENE 1.8 mph 5 mph 71% 0 in
00:19 73.9 °F 64 °F 29.9 in Este 1.9 mph 4.7 mph 71.1% 0 in
00:24 73.8 °F 64.8 °F 29.9 in ESE 2.4 mph 5.2 mph 73.2% 0 in
00:29 73.6 °F 65.1 °F 29.9 in ESE 2.5 mph 5 mph 74.6% 0 in
00:34 73.4 °F 65.3 °F 29.9 in ESE 2.9 mph 5.2 mph 75.4% 0 in
00:39 73.4 °F 65.5 °F 29.9 in ESE 2.7 mph 5 mph 76% 0 in
00:44 73.4 °F 65.5 °F 29.9 in ESE 2 mph 4.7 mph 76% 0 in
00:49 73.6 °F 65.5 °F 29.9 in ESE 2 mph 5 mph 76% 0 in
00:54 73.6 °F 65.5 °F 29.9 in ESE 1.8 mph 2.9 mph 76% 0 in
00:59 73.8 °F 65.7 °F 29.9 in ESE 1.7 mph 3 mph 76% 0 in
01:04 73.8 °F 65.5 °F 29.9 in ESE 1.4 mph 2.3 mph 75.5% 0 in
01:09 73.8 °F 65.3 °F 29.9 in ESE 1.2 mph 2 mph 75% 0 in
01:14 73.8 °F 65.1 °F 29.9 in Calm   2.9 mph 74.6% 0 in
01:19 73.8 °F 64.9 °F 29.9 in Sur 0.2 mph 3.6 mph 73.8% 0 in
01:24 73.8 °F 64.9 °F 29.9 in Sur 1.4 mph 4 mph 73.7% 0 in
01:29 73.9 °F 64.8 °F 29.9 in Sur 1.4 mph 3.5 mph 73.3% 0 in
01:34 73.9 °F 65.1 °F 29.9 in Sur 1.4 mph 3 mph 74% 0 in
01:39 73.9 °F 65.1 °F 29.8 in Sur 1.4 mph 3 mph 74% 0 in
01:44 73.9 °F 64.8 °F 29.8 in Sur 1.4 mph 2.4 mph 73.3% 0 in
01:49 73.8 °F 64.8 °F 29.8 in Sur 1.2 mph 4.3 mph 73.6% 0 in
01:54 73.8 °F 64.2 °F 29.8 in Calm   5 mph 72% 0 in
01:59 73.8 °F 64 °F 29.8 in OSO 0.4 mph 5 mph 71.8% 0 in
02:04 73.6 °F 63.7 °F 29.8 in OSO 2 mph 5.8 mph 71% 0 in
02:09 73.6 °F 63.5 °F 29.8 in OSO 2 mph 6 mph 71% 0 in
02:14 73.4 °F 63.7 °F 29.8 in SO 2 mph 5 mph 71.7% 0 in
02:19 73.4 °F 64.2 °F 29.8 in SO 2 mph 4 mph 73% 0 in
02:24 73.2 °F 64 °F 29.8 in SO 1.8 mph 3.6 mph 73% 0 in
02:29 73.2 °F 64 °F 29.8 in SO 1.8 mph 4 mph 73% 0 in
02:34 73 °F 63.9 °F 29.8 in OSO 1.8 mph 4.7 mph 73% 0 in
02:39 73 °F 63.9 °F 29.8 in OSO 1.8 mph 5 mph 73% 0 in
02:44 72.9 °F 63.7 °F 29.8 in OSO 1.8 mph 5 mph 73% 0 in
02:49 72.9 °F 63.7 °F 29.8 in OSO 1.7 mph 5 mph 73% 0 in
02:54 72.7 °F 63.5 °F 29.8 in OSO 1.4 mph 4.6 mph 73.1% 0 in
02:59 72.7 °F 63.9 °F 29.8 in OSO 1.5 mph 5 mph 74% 0 in
03:04 72.3 °F 63.9 °F 29.8 in SO 1.8 mph 3.6 mph 74.6% 0 in
03:09 72.3 °F 63.9 °F 29.8 in SSO 1.8 mph 4 mph 75% 0 in
03:14 72.3 °F 63.9 °F 29.8 in SSO 1.8 mph 4 mph 75% 0 in
03:19 72.3 °F 63.9 °F 29.8 in SSO 1.7 mph 3 mph 75% 0 in
03:24 72.3 °F 64.2 °F 29.8 in SSO 1.4 mph 3.6 mph 75.9% 0 in
03:29 72.3 °F 64.2 °F 29.8 in Sur 1.5 mph 4 mph 76% 0 in
03:34 72.1 °F 64.2 °F 29.8 in Sur 2 mph 5.2 mph 76% 0 in
03:39 72 °F 64 °F 29.8 in SSE 2.2 mph 5.9 mph 76% 0 in
03:44 71.8 °F 63.9 °F 29.8 in SSE 3.1 mph 6 mph 76% 0 in
03:49 71.6 °F 63.7 °F 29.8 in SSE 3 mph 5 mph 76% 0 in
03:54 71.4 °F 63.5 °F 29.8 in SE 2.9 mph 5.9 mph 76% 0 in
03:59 71.1 °F 63.1 °F 29.8 in SE 2.9 mph 6 mph 76% 0 in
04:04 70.9 °F 62.8 °F 29.8 in Sur 3.1 mph 7 mph 76% 0 in
04:09 70.5 °F 62.6 °F 29.8 in SSE 3.2 mph 7 mph 76% 0 in
04:14 70.5 °F 62.4 °F 29.8 in Sur 3.6 mph 6.2 mph 75.7% 0 in
04:19 70.5 °F 62.2 °F 29.8 in SSE 3.7 mph 6.2 mph 75% 0 in
04:24 70.5 °F 62.2 °F 29.8 in Sur 4.3 mph 6.9 mph 75% 0 in
04:29 70.3 °F 62.1 °F 29.8 in Sur 4.3 mph 7 mph 75% 0 in
04:34 70.2 °F 61.9 °F 29.8 in Sur 4 mph 6 mph 75% 0 in
04:39 70 °F 61.7 °F 29.8 in Sur 4 mph 6.9 mph 75% 0 in
04:44 69.8 °F 61.7 °F 29.8 in Sur 4 mph 7 mph 75.2% 0 in
04:49 69.6 °F 61.7 °F 29.8 in SSE 4 mph 7 mph 76% 0 in
04:54 69.6 °F 61.7 °F 29.8 in SSE 3.6 mph 5 mph 76% 0 in
04:59 69.6 °F 61.7 °F 29.8 in SSE 3.4 mph 6.2 mph 76% 0 in
05:04 69.4 °F 61.5 °F 29.8 in SSE 2.4 mph 6.2 mph 76% 0 in
05:09 69.3 °F 61.3 °F 29.8 in SSE 2.7 mph 6 mph 76% 0 in
05:14 69.3 °F 61.3 °F 29.8 in SSE 4 mph 8.1 mph 76% 0 in
05:19 69.1 °F 61.5 °F 29.8 in SSE 4.2 mph 8 mph 76.5% 0 in
05:24 69.1 °F 61.5 °F 29.8 in SSE 5.2 mph 6 mph 76.9% 0 in
05:29 69.1 °F 61.3 °F 29.8 in Sur 5 mph 6 mph 76.5% 0 in
05:34 69.1 °F 61.2 °F 29.8 in Sur 3.6 mph 5 mph 76% 0 in
05:39 69.1 °F 61.5 °F 29.8 in SSO 3.4 mph 5 mph 77% 0 in
05:44 69.1 °F 61.5 °F 29.8 in SSO 2.4 mph 5 mph 76.6% 0 in
05:49 69.3 °F 61.3 °F 29.8 in SSE 2.4 mph 5 mph 76% 0 in
05:54 69.3 °F 61.3 °F 29.8 in SSE 2.4 mph 5 mph 76% 0 in
05:59 69.3 °F 61.3 °F 29.8 in SE 2.4 mph 4.7 mph 76% 0 in
06:04 68.7 °F 61.2 °F 29.8 in SE 2.4 mph 6.2 mph 76.7% 0 in
06:09 68.5 °F 61 °F 29.8 in SE 2.5 mph 6 mph 77% 0 in
06:14 68.4 °F 61 °F 29.8 in SSE 3.1 mph 5 mph 77% 0 in
06:19 68.4 °F 61 °F 29.8 in SSE 2.9 mph 3.6 mph 77% 0 in
06:24 68.5 °F 61 °F 29.8 in OSO 1.4 mph 4 mph 77% 0 in
06:29 68.5 °F 61 °F 29.8 in ONO 1.5 mph 3.5 mph 77% 0 in
06:34 68.5 °F 61 °F 29.8 in ONO 1.8 mph 3 mph 77% 0 in
06:39 68.5 °F 61 °F 29.8 in ONO 1.7 mph 2.4 mph 77% 0 in
06:44 68.5 °F 60.8 °F 29.8 in NNE 1.4 mph 4.6 mph 76.4% 0 in
06:49 68.5 °F 60.8 °F 29.8 in ESE 1.5 mph 5 mph 76% 0 in
06:54 68.5 °F 60.6 °F 29.8 in SE 2 mph 5.9 mph 75.6% 0 in
06:59 68.5 °F 60.3 °F 29.8 in SE 2.4 mph 7.4 mph 75% 0 in
07:04 68.4 °F 60.1 °F 29.8 in SSE 4 mph 7 mph 75% 0 in
07:09 68.4 °F 59.7 °F 29.8 in SSE 4 mph 7.4 mph 73.9% 0 in
07:14 68.4 °F 59.4 °F 29.8 in SSE 4.3 mph 7 mph 73% 0 in
07:19 68.5 °F 59.2 °F 29.8 in Sur 4.3 mph 7 mph 72.2% 0 in
07:24 68.5 °F 58.8 °F 29.7 in Sur 4.3 mph 6.2 mph 71.2% 0 in
07:29 68.7 °F 58.6 °F 29.7 in Sur 4.3 mph 6 mph 70.3% 0 in
07:34 68.9 °F 58.8 °F 29.7 in Sur 4 mph 6 mph 70% 0 in
07:39 69.1 °F 58.6 °F 29.7 in SSE 3.9 mph 6.2 mph 69.4% 0 in
07:44 69.1 °F 58.5 °F 29.7 in Sur 3.1 mph 6 mph 69% 0 in
07:49 69.1 °F 58.5 °F 29.7 in Sur 3 mph 5 mph 69% 0 in
07:54 69.3 °F 58.6 °F 29.7 in SE 2.4 mph 4.6 mph 69% 0 in
07:59 69.1 °F 58.1 °F 29.7 in SE 2.3 mph 5 mph 68% 0 in
08:04 69.1 °F 58.1 °F 29.7 in SE 2 mph 4 mph 68% 0 in
08:09 69.1 °F 58.1 °F 29.7 in SE 2 mph 3.6 mph 68% 0 in
08:14 69.4 °F 58.3 °F 29.7 in SO 2 mph 4 mph 67.7% 0 in
08:19 69.6 °F 58.3 °F 29.7 in Oeste 2 mph 4.6 mph 67.1% 0 in
08:24 70 °F 58.1 °F 29.7 in Oeste 2 mph 5 mph 66.4% 0 in
08:29 70.2 °F 57.7 °F 29.7 in Oeste 2 mph 5.2 mph 64.7% 0 in
08:34 70.5 °F 57.6 °F 29.7 in Oeste 2 mph 5 mph 63.5% 0 in
08:39 71.1 °F 58.5 °F 29.7 in OSO 2 mph 5 mph 64.5% 0 in
08:44 71.1 °F 58.3 °F 29.7 in Este 2 mph 5 mph 64.1% 0 in
08:49 71.1 °F 58.3 °F 29.7 in Este 2.1 mph 5 mph 64% 0 in
08:54 71.4 °F 58.6 °F 29.7 in Este 2.4 mph 5 mph 64.2% 0 in
08:59 72 °F 58.6 °F 29.7 in Este 2.2 mph 3 mph 63.1% 0 in
09:04 72.5 °F 58.5 °F 29.7 in Este 1.4 mph 3.5 mph 61.2% 0 in
09:09 73.2 °F 58.6 °F 29.7 in NNE 1.5 mph 6.2 mph 60.5% 0 in
09:14 73.6 °F 58.6 °F 29.7 in NO 2 mph 8.1 mph 59.6% 0 in
09:19 73.8 °F 58.1 °F 29.7 in ONO 2.3 mph 10.4 mph 58.1% 0 in
09:24 74.3 °F 56.8 °F 29.7 in ONO 4.3 mph 12.7 mph 54.2% 0 in
09:29 75.4 °F 56.7 °F 29.7 in ONO 4.9 mph 13.5 mph 52.3% 0 in
09:34 76.3 °F 56.3 °F 29.8 in ONO 8.1 mph 13.8 mph 50.3% 0 in
09:39 77 °F 55.9 °F 29.8 in ONO 8.3 mph 16.3 mph 48.3% 0 in
09:44 77.5 °F 55.4 °F 29.8 in ONO 9.7 mph 16 mph 46.6% 0 in
09:49 77.7 °F 54.9 °F 29.8 in ONO 9.8 mph 15 mph 45.3% 0 in
09:54 78.1 °F 55.2 °F 29.8 in ONO 10 mph 15 mph 45.4% 0 in
09:59 78.3 °F 55.2 °F 29.8 in ONO 9.5 mph 13 mph 45% 0 in
10:04 78.3 °F 55 °F 29.8 in ONO 7.6 mph 13 mph 45% 0 in
10:09 78.1 °F 55 °F 29.8 in ONO 7.6 mph 13 mph 45.2% 0 in
10:14 78.1 °F 55 °F 29.8 in NO 7.6 mph 17.3 mph 45% 0 in
10:19 77.9 °F 54.9 °F 29.8 in ONO 7.7 mph 17 mph 45% 0 in
10:24 77.5 °F 54.5 °F 29.8 in ONO 8.1 mph 14 mph 45% 0 in
10:29 77.5 °F 54.3 °F 29.8 in ONO 8 mph 13.8 mph 44.7% 0 in
10:34 77.5 °F 53.1 °F 29.8 in ONO 7.6 mph 17.5 mph 42.6% 0 in
10:39 77.7 °F 51.8 °F 29.8 in ONO 8.2 mph 18.5 mph 40.6% 0 in
10:44 78.3 °F 51.1 °F 29.8 in ONO 11.4 mph 19.7 mph 38.8% 0 in
10:49 78.3 °F 50 °F 29.8 in ONO 11.4 mph 21.5 mph 37.3% 0 in
10:54 78.3 °F 49.6 °F 29.8 in ONO 11.2 mph 22 mph 36.7% 0 in
10:59 78.6 °F 49.3 °F 29.8 in ONO 11.2 mph 20 mph 35.7% 0 in
11:04 79.3 °F 47.8 °F 29.8 in ONO 11.4 mph 25.6 mph 33.2% 0 in
11:09 79.9 °F 48.2 °F 29.8 in ONO 11.7 mph 26 mph 33% 0 in
11:14 79.9 °F 48.4 °F 29.8 in NO 13.7 mph 22.5 mph 33.2% 0 in
11:19 79.7 °F 48.2 °F 29.8 in ONO 13.7 mph 26.8 mph 33.2% 0 in
11:24 79.7 °F 48.2 °F 29.8 in ONO 14 mph 27 mph 33.2% 0 in
11:29 79.9 °F 48.4 °F 29.8 in ONO 14.1 mph 28.8 mph 33.3% 0 in
11:34 79.9 °F 48.2 °F 29.8 in NO 14.5 mph 29 mph 33% 0 in
11:39 80.1 °F 48.4 °F 29.8 in NNO 14.4 mph 24 mph 33% 0 in
11:44 80.1 °F 48.4 °F 29.8 in NO 13.5 mph 24.2 mph 33% 0 in
11:49 80.4 °F 47.8 °F 29.8 in ONO 13.5 mph 24.2 mph 32.1% 0 in
11:54 80.1 °F 47.7 °F 29.8 in NO 13.7 mph 24 mph 32% 0 in
11:59 79.7 °F 47.3 °F 29.8 in NO 13.5 mph 20.7 mph 32.2% 0 in
12:04 79.3 °F 47.3 °F 29.8 in ONO 12.5 mph 22.3 mph 32.6% 0 in
12:09 79 °F 47.3 °F 29.8 in NO 12.6 mph 26.3 mph 32.9% 0 in
12:14 79.2 °F 47.5 °F 29.8 in ONO 13 mph 26.5 mph 33% 0 in
12:19 79.3 °F 47.3 °F 29.8 in ONO 13.2 mph 26.5 mph 32.4% 0 in
12:24 79.7 °F 47.1 °F 29.8 in ONO 14.5 mph 28.8 mph 31.8% 0 in
12:29 79.9 °F 46.6 °F 29.8 in ONO 14.9 mph 31.1 mph 31% 0 in
12:34 79.9 °F 46.8 °F 29.8 in NO 17.5 mph 31.1 mph 31.4% 0 in
12:39 79.9 °F 46.8 °F 29.8 in ONO 17.3 mph 31.3 mph 31.3% 0 in
12:44 79.9 °F 46.6 °F 29.8 in Oeste 16.3 mph 31 mph 31% 0 in
12:49 79.9 °F 46.6 °F 29.8 in Oeste 15.7 mph 24 mph 31.1% 0 in
12:54 80.1 °F 46.6 °F 29.8 in Oeste 12.3 mph 21 mph 31% 0 in
12:59 80.2 °F 46.8 °F 29.8 in Oeste 11.7 mph 18 mph 30.9% 0 in
13:04 80.6 °F 46.2 °F 29.8 in ONO 9.7 mph 19.6 mph 30.1% 0 in
13:09 80.4 °F 46 °F 29.8 in ONO 9.9 mph 22.3 mph 29.9% 0 in
13:14 80.6 °F 46 °F 29.8 in NO 11.2 mph 22 mph 29.8% 0 in
13:19 80.4 °F 45.7 °F 29.8 in Oeste 11.5 mph 21 mph 29.5% 0 in
13:24 80.6 °F 45.5 °F 29.8 in ONO 13 mph 27.9 mph 29% 0 in
13:29 80.4 °F 44.8 °F 29.8 in ONO 13.4 mph 29.1 mph 28.6% 0 in
13:34 80.6 °F 44.8 °F 29.8 in ONO 15.2 mph 29 mph 28.3% 0 in
13:39 80.8 °F 45.3 °F 29.8 in ONO 15.1 mph 26 mph 28.8% 0 in
13:44 80.8 °F 45 °F 29.8 in Oeste 14.5 mph 29.9 mph 28.4% 0 in
13:49 80.8 °F 45 °F 29.8 in ONO 14.8 mph 31.3 mph 28.5% 0 in
13:54 81.1 °F 45 °F 29.8 in ONO 16.3 mph 36 mph 28.1% 0 in
13:59 81.5 °F 45 °F 29.8 in ONO 16.8 mph 36 mph 27.8% 0 in
14:04 81.1 °F 44.1 °F 29.8 in ONO 18.5 mph 32.2 mph 27% 0 in
14:09 81.3 °F 44.6 °F 29.8 in ONO 18.1 mph 32 mph 27.6% 0 in
14:14 81.7 °F 43.9 °F 29.8 in NO 15.9 mph 24.2 mph 26.4% 0 in
14:19 81.1 °F 43.3 °F 29.8 in Oeste 15.8 mph 28.8 mph 26.2% 0 in
14:24 81.1 °F 43.9 °F 29.8 in Oeste 15.6 mph 29 mph 26.9% 0 in
14:29 81.3 °F 44.1 °F 29.8 in OSO 15.1 mph 22 mph 27% 0 in
14:34 81.3 °F 44.1 °F 29.8 in Oeste 12.5 mph 23 mph 26.9% 0 in
14:39 81.1 °F 43.7 °F 29.8 in ONO 12.9 mph 27.6 mph 26.8% 0 in
14:44 81 °F 43.7 °F 29.8 in ONO 14.5 mph 28 mph 26.9% 0 in
14:49 81 °F 43.5 °F 29.8 in Oeste 14.4 mph 23 mph 26.7% 0 in
14:54 81 °F 41.9 °F 29.8 in Oeste 14 mph 27.9 mph 25.1% 0 in
14:59 81.1 °F 41.9 °F 29.8 in ONO 14.1 mph 28 mph 25% 0 in
15:04 81.5 °F 41.9 °F 29.8 in Oeste 14.5 mph 24 mph 24.7% 0 in
15:09 81.7 °F 41.4 °F 29.8 in ONO 14.4 mph 22 mph 24% 0 in
15:14 81.5 °F 40.6 °F 29.8 in ONO 13.5 mph 33.7 mph 23.5% 0 in
15:19 81 °F 40.5 °F 29.8 in NO 14 mph 34 mph 23.7% 0 in
15:24 81 °F 40.5 °F 29.8 in NO 16.3 mph 26.5 mph 23.7% 0 in
15:29 81.1 °F 41 °F 29.8 in NO 16 mph 25 mph 24% 0 in
15:34 81.3 °F 41 °F 29.8 in NO 14.5 mph 24.2 mph 24% 0 in
15:39 81.1 °F 40.8 °F 29.8 in NO 14.4 mph 24 mph 24% 0 in
15:44 81 °F 40.6 °F 29.8 in ONO 14 mph 22.5 mph 23.8% 0 in
15:49 81.3 °F 40.6 °F 29.8 in NO 13.5 mph 23 mph 23.6% 0 in
15:54 81.5 °F 40.3 °F 29.8 in ONO 11.4 mph 22 mph 23.2% 0 in
15:59 81.3 °F 40.1 °F 29.8 in ONO 11.6 mph 26.5 mph 23.1% 0 in
16:04 81.3 °F 40.8 °F 29.8 in ONO 12.5 mph 26 mph 23.7% 0 in
16:09 81.3 °F 40.1 °F 29.8 in ONO 12.4 mph 25.3 mph 23% 0 in
16:14 81.3 °F 38.3 °F 29.8 in NO 11.8 mph 29.1 mph 21.7% 0 in
16:19 81.5 °F 35.8 °F 29.8 in ONO 12.4 mph 30.1 mph 19.4% 0 in
16:24 81.7 °F 34 °F 29.8 in NO 15.9 mph 31.3 mph 18% 0 in
16:29 81.7 °F 33.4 °F 29.8 in NO 15.8 mph 31 mph 17.6% 0 in
16:34 81.9 °F 32.9 °F 29.8 in NO 15.6 mph 30 mph 17% 0 in
16:39 81.7 °F 32.7 °F 29.8 in NO 15.7 mph 28 mph 17% 0 in
16:44 81.9 °F 31.8 °F 29.8 in NO 16.3 mph 27.6 mph 16.4% 0 in
16:49 81.9 °F 30.9 °F 29.8 in ONO 15.9 mph 28 mph 15.8% 0 in
16:54 81.9 °F 28.4 °F 29.8 in ONO 14 mph 31.3 mph 14.2% 0 in
16:59 81.7 °F 29.5 °F 29.8 in ONO 14.8 mph 31.1 mph 15% 0 in
17:04 81.7 °F 30.7 °F 29.8 in ONO 18.1 mph 30 mph 15.8% 0 in
17:09 81.7 °F 32.4 °F 29.8 in ONO 17.7 mph 32.2 mph 16.8% 0 in
17:14 81.9 °F 32.5 °F 29.8 in ONO 15.9 mph 32 mph 16.9% 0 in
17:19 81.9 °F 32.7 °F 29.8 in NO 15.5 mph 26.5 mph 17% 0 in
17:24 81.9 °F 32.7 °F 29.8 in NO 13.7 mph 28.8 mph 17% 0 in
17:29 81.7 °F 32.4 °F 29.8 in ONO 14.3 mph 29 mph 16.8% 0 in
17:34 81.7 °F 32.7 °F 29.8 in ONO 17.5 mph 28 mph 17.1% 0 in
17:39 81.5 °F 33.4 °F 29.8 in ONO 17.1 mph 26 mph 17.6% 0 in
17:44 81.7 °F 33.4 °F 29.8 in ONO 14.7 mph 23 mph 17.6% 0 in
17:49 81.9 °F 34.2 °F 29.8 in ONO 14.7 mph 26.8 mph 18% 0 in
17:54 81.7 °F 34 °F 29.8 in ONO 14.7 mph 27 mph 18% 0 in
17:59 81.7 °F 34 °F 29.8 in ONO 14.7 mph 26 mph 18% 0 in
18:04 81.7 °F 34 °F 29.8 in NO 14.7 mph 25.3 mph 18% 0 in
18:09 81.7 °F 34.2 °F 29.8 in ONO 14.4 mph 25 mph 18.1% 0 in
18:14 81.9 °F 34.2 °F 29.8 in ONO 12.5 mph 28.8 mph 18% 0 in
18:19 81.9 °F 34.2 °F 29.8 in ONO 13 mph 29 mph 18% 0 in
18:24 81.9 °F 34.2 °F 29.8 in NO 15.6 mph 29 mph 18% 0 in
18:29 81.7 °F 34 °F 29.8 in NO 15.3 mph 25 mph 18% 0 in
18:34 81.7 °F 35.1 °F 29.8 in ONO 14 mph 23 mph 18.7% 0 in
18:39 81.7 °F 35.4 °F 29.8 in ONO 13.8 mph 27.6 mph 19% 0 in
18:44 81.7 °F 35.4 °F 29.8 in ONO 12.5 mph 28 mph 19% 0 in
18:49 81.5 °F 35.1 °F 29.8 in ONO 12.7 mph 21.3 mph 18.8% 0 in
18:54 81.3 °F 35.1 °F 29.8 in ONO 13.7 mph 29.9 mph 19% 0 in
18:59 81.1 °F 35.1 °F 29.8 in ONO 14.2 mph 30.1 mph 19% 0 in
19:04 81 °F 34.7 °F 29.8 in ONO 15.9 mph 32.2 mph 19% 0 in
19:09 80.8 °F 34.7 °F 29.8 in NO 16.1 mph 32 mph 19% 0 in
19:14 80.8 °F 34.7 °F 29.8 in NO 17 mph 30.1 mph 19% 0 in
19:19 80.4 °F 35.2 °F 29.8 in ONO 16.8 mph 30 mph 19.6% 0 in
19:24 80.4 °F 35.6 °F 29.8 in ONO 15.9 mph 26 mph 20% 0 in
19:29 80.2 °F 35.4 °F 29.8 in ONO 15.9 mph 32.2 mph 20% 0 in
19:34 80.1 °F 35.4 °F 29.8 in ONO 15.9 mph 32 mph 20% 0 in
19:39 79.9 °F 35.2 °F 29.8 in ONO 15.9 mph 32.2 mph 20% 0 in
19:44 79.7 °F 34.7 °F 29.8 in ONO 15.9 mph 31.1 mph 19.7% 0 in
19:49 79.3 °F 34.9 °F 29.8 in ONO 16.2 mph 30 mph 20% 0 in
19:54 79.3 °F 34.7 °F 29.8 in ONO 17.5 mph 33.4 mph 20% 0 in
19:59 79.2 °F 35.2 °F 29.8 in NO 17.4 mph 33 mph 20.5% 0 in
20:04 79 °F 35.6 °F 29.8 in NO 17 mph 25.3 mph 21% 0 in
20:09 78.6 °F 35.4 °F 29.8 in NO 16.3 mph 25 mph 21% 0 in
20:14 78.4 °F 35.6 °F 29.8 in NO 13 mph 24 mph 21.4% 0 in
20:19 78.3 °F 36.3 °F 29.8 in NO 12.7 mph 21 mph 22% 0 in
20:24 78.1 °F 36.1 °F 29.8 in NO 11.4 mph 21.3 mph 22% 0 in
20:29 78.1 °F 36.1 °F 29.8 in NO 11.4 mph 22.3 mph 22% 0 in
20:34 77.9 °F 36 °F 29.8 in NO 11.4 mph 24.6 mph 22% 0 in
20:39 77.7 °F 35.8 °F 29.8 in NO 11.7 mph 25 mph 22% 0 in
20:44 77.7 °F 35.8 °F 29.8 in NO 13 mph 21 mph 22% 0 in
20:49 77.5 °F 35.8 °F 29.8 in NO 12.7 mph 20 mph 22% 0 in
20:54 77.4 °F 35.6 °F 29.8 in ONO 11.2 mph 20 mph 22% 0 in
20:59 77.4 °F 35.4 °F 29.8 in NO 11 mph 21.3 mph 22% 0 in
21:04 77.2 °F 36.3 °F 29.8 in ONO 10.2 mph 21 mph 22.9% 0 in
21:09 77 °F 36.3 °F 29.8 in NO 10.6 mph 31.3 mph 23% 0 in
21:14 76.8 °F 36.1 °F 29.8 in ONO 12.5 mph 31 mph 23% 0 in
21:19 76.6 °F 36 °F 29.8 in NO 12.6 mph 23 mph 23% 0 in
21:24 76.6 °F 36.3 °F 29.8 in NO 13 mph 22.3 mph 23.3% 0 in
21:29 76.6 °F 37 °F 29.8 in ONO 12.9 mph 22 mph 24% 0 in
21:34 76.6 °F 37 °F 29.8 in ONO 12.5 mph 22 mph 24% 0 in
21:39 76.5 °F 37 °F 29.8 in NO 12.3 mph 20 mph 24% 0 in
21:44 76.5 °F 37.4 °F 29.8 in NO 11.2 mph 21.9 mph 24.4% 0 in
21:49 76.5 °F 37.9 °F 29.9 in NO 11.1 mph 22 mph 25% 0 in
21:54 76.3 °F 37.9 °F 29.9 in NO 10.2 mph 17.3 mph 25% 0 in
21:59 75.9 °F 37.6 °F 29.9 in NO 10 mph 18.4 mph 25% 0 in
22:04 75.9 °F 37.6 °F 29.9 in NO 9.2 mph 23.5 mph 25% 0 in
22:09 75.9 °F 37.6 °F 29.9 in NO 9.8 mph 23 mph 25% 0 in
22:14 75.7 °F 38.5 °F 29.9 in ONO 13 mph 22 mph 26% 0 in
22:19 75.6 °F 38.3 °F 29.9 in NO 12.6 mph 18.5 mph 26% 0 in
22:24 75 °F 38.8 °F 29.9 in NO 10.7 mph 19 mph 27.1% 0 in
22:29 74.1 °F 39.4 °F 29.9 in NO 10.4 mph 18.4 mph 28.5% 0 in
22:34 73.6 °F 39.7 °F 29.9 in NO 9.2 mph 17 mph 29.4% 0 in
22:39 73 °F 39.7 °F 29.9 in NO 8.8 mph 12.7 mph 30% 0 in
22:44 72.7 °F 39.6 °F 29.9 in NO 6.9 mph 13 mph 30.1% 0 in
22:49 72.3 °F 40.1 °F 29.9 in NNO 7.1 mph 16.1 mph 31% 0 in
22:54 72.1 °F 39.9 °F 29.9 in NO 8.1 mph 16 mph 31% 0 in
22:59 72.1 °F 39.7 °F 29.9 in NO 8.2 mph 16.1 mph 31% 0 in
23:04 72 °F 40.3 °F 29.9 in NO 8.5 mph 17.3 mph 31.7% 0 in
23:09 71.8 °F 40.3 °F 29.9 in NNO 8.5 mph 17 mph 32% 0 in
23:14 71.8 °F 40.3 °F 29.9 in NO 8.5 mph 13.8 mph 32% 0 in
23:19 71.4 °F 40.1 °F 29.9 in NO 8.3 mph 14 mph 32% 0 in
23:24 71.4 °F 39.9 °F 29.9 in NO 7.4 mph 12 mph 32% 0 in
23:29 71.2 °F 40.3 °F 29.9 in NO 7.2 mph 12 mph 32.6% 0 in
23:34 71.2 °F 40.6 °F 29.9 in NO 6.2 mph 12 mph 33% 0 in
23:39 71.1 °F 40.5 °F 29.9 in NO 6.2 mph 12.7 mph 33% 0 in
23:44 71.1 °F 40.5 °F 29.9 in NO 6.2 mph 13 mph 33% 0 in
23:49 71.1 °F 40.5 °F 29.9 in NO 6 mph 10 mph 33% 0 in
23:54 70.9 °F 40.6 °F 29.9 in NO 4.7 mph 9.2 mph 33.4% 0 in
23:59 70.9 °F 41 °F 29.9 in ONO 4.8 mph 12.3 mph 33.9% 0 in
Murcia-Puente Tocinos, España
Compliments of Weather Underground - 3 mb

La estación de MeteoMurcia.com, publica sus datos en los siguientes proyectos:

Weather Underground PWS IMURCIAP2 Meteoclimatic www.awekas.at

W3Counter
Web Analytics